Time;durP1;ratioP1;P1;durP2;ratioP2;P2;SDS_P1;SDS_P2;PMS_P1;PMS_P2;Temp;Humidity;BMP_temperature;BMP_pressure;BME280_temperature;BME280_humidity;BME280_pressure;Samples;Min_cycle;Max_cycle;Signal;HPM_P1;HPM_P2
2021/01/06 00:00:50;;;;;;;30.63;15.93;;;;;;;;;;620558;225;919540;-69
2021/01/06 00:03:17;;;;;;;30.43;15.97;;;;;;;;;;620435;225;918462;-70
2021/01/06 00:05:43;;;;;;;41.23;17.87;;;;;;;;;;623344;225;919587;-69
2021/01/06 00:08:08;;;;;;;44.60;21.17;;;;;;;;;;613839;225;2045152;-72
2021/01/06 00:10:34;;;;;;;45.60;20.97;;;;;;;;;;617853;225;918707;-69
2021/01/06 00:13:00;;;;;;;45.20;20.70;;;;;;;;;;619804;224;919002;-69
2021/01/06 00:15:26;;;;;;;44.07;20.23;;;;;;;;;;623150;224;918470;-69
2021/01/06 00:17:52;;;;;;;40.23;20.20;;;;;;;;;;621214;225;917435;-70
2021/01/06 00:20:18;;;;;;;40.57;19.23;;;;;;;;;;616741;225;918717;-70
2021/01/06 00:22:44;;;;;;;38.50;20.10;;;;;;;;;;626150;225;923207;-70
2021/01/06 00:25:10;;;;;;;42.90;22.70;;;;;;;;;;618629;225;920063;-70
2021/01/06 00:27:36;;;;;;;44.13;19.63;;;;;;;;;;618964;225;919410;-70
2021/01/06 00:30:02;;;;;;;40.87;20.50;;;;;;;;;;621599;225;918542;-70
2021/01/06 00:32:28;;;;;;;37.20;20.30;;;;;;;;;;617061;227;918839;-70
2021/01/06 00:34:53;;;;;;;33.30;16.67;;;;;;;;;;619149;225;919175;-69
2021/01/06 00:37:20;;;;;;;31.62;17.55;;;;;;;;;;619258;225;918451;-69
2021/01/06 00:39:46;;;;;;;36.73;18.23;;;;;;;;;;623754;225;917229;-69
2021/01/06 00:42:12;;;;;;;32.70;17.13;;;;;;;;;;619342;225;918845;-70
2021/01/06 00:44:38;;;;;;;33.00;16.77;;;;;;;;;;620910;225;918731;-69
2021/01/06 00:47:03;;;;;;;33.67;18.07;;;;;;;;;;620272;225;919207;-69
2021/01/06 00:49:29;;;;;;;33.90;16.80;;;;;;;;;;618133;225;918432;-69
2021/01/06 00:51:55;;;;;;;36.10;18.40;;;;;;;;;;619620;224;917713;-69
2021/01/06 00:54:21;;;;;;;32.77;18.67;;;;;;;;;;626072;224;921761;-69
2021/01/06 00:56:47;;;;;;;31.93;16.77;;;;;;;;;;619781;225;918551;-69
2021/01/06 00:59:13;;;;;;;39.80;17.30;;;;;;;;;;620011;225;1021545;-68
2021/01/06 01:01:38;;;;;;;32.90;17.83;;;;;;;;;;623778;225;918093;-70
2021/01/06 01:04:04;;;;;;;27.93;16.97;;;;;;;;;;622351;225;918159;-69
2021/01/06 01:06:30;;;;;;;33.65;16.17;;;;;;;;;;613816;225;975343;-69
2021/01/06 01:08:56;;;;;;;34.83;18.03;;;;;;;;;;620138;225;919361;-70
2021/01/06 01:11:22;;;;;;;32.80;14.90;;;;;;;;;;621797;225;1039843;-70
2021/01/06 01:13:49;;;;;;;35.78;17.60;;;;;;;;;;617712;225;920182;-70
2021/01/06 01:16:15;;;;;;;31.50;18.20;;;;;;;;;;619595;225;920046;-69
2021/01/06 01:18:41;;;;;;;32.73;18.00;;;;;;;;;;624173;225;920086;-69
2021/01/06 01:21:07;;;;;;;38.60;17.87;;;;;;;;;;618162;225;920352;-69
2021/01/06 01:23:33;;;;;;;33.57;19.63;;;;;;;;;;617904;225;918401;-69
2021/01/06 01:25:58;;;;;;;30.43;16.87;;;;;;;;;;622878;225;913033;-69
2021/01/06 01:28:24;;;;;;;32.77;16.97;;;;;;;;;;621532;225;925363;-70
2021/01/06 01:30:50;;;;;;;36.33;17.80;;;;;;;;;;619896;225;919173;-68
2021/01/06 01:33:16;;;;;;;28.37;16.43;;;;;;;;;;618047;225;918447;-67
2021/01/06 01:35:42;;;;;;;35.50;17.57;;;;;;;;;;622448;225;919138;-69
2021/01/06 01:38:08;;;;;;;35.57;16.87;;;;;;;;;;612918;225;1020754;-69
2021/01/06 01:40:33;;;;;;;41.10;19.10;;;;;;;;;;620429;225;922526;-69
2021/01/06 01:43:14;;;;;;;29.97;16.83;;;;;;;;;;621689;225;918382;-69
2021/01/06 01:45:55;;;;;;;27.27;15.37;;;;;;;;;;625165;224;919260;-69
2021/01/06 01:48:36;;;;;;;40.93;22.07;;;;;;;;;;626327;223;918519;-70
2021/01/06 01:51:01;;;;;;;43.80;20.27;;;;;;;;;;624646;223;919054;-69
2021/01/06 01:53:30;;;;;;;42.80;20.07;;;;;;;;;;618175;225;1219892;-69
2021/01/06 01:55:56;;;;;;;41.17;20.97;;;;;;;;;;618818;225;918382;-69
2021/01/06 01:58:23;;;;;;;48.00;21.35;;;;;;;;;;622845;223;983586;-69
2021/01/06 02:00:49;;;;;;;40.10;21.20;;;;;;;;;;621531;225;918572;-69
2021/01/06 02:03:15;;;;;;;44.28;22.15;;;;;;;;;;621073;223;918907;-69
2021/01/06 02:05:44;;;;;;;46.27;22.37;;;;;;;;;;624397;224;918333;-68
2021/01/06 02:08:10;;;;;;;33.70;20.33;;;;;;;;;;624518;225;918640;-69
2021/01/06 02:10:36;;;;;;;34.40;18.50;;;;;;;;;;618854;225;919137;-70
2021/01/06 02:13:02;;;;;;;30.73;18.03;;;;;;;;;;621088;225;919870;-69
2021/01/06 02:15:27;;;;;;;30.77;17.63;;;;;;;;;;623155;225;918381;-69
2021/01/06 02:17:53;;;;;;;36.67;18.80;;;;;;;;;;620891;225;918107;-69
2021/01/06 02:20:19;;;;;;;40.20;20.30;;;;;;;;;;618346;225;942508;-69
2021/01/06 02:22:45;;;;;;;35.73;19.37;;;;;;;;;;624411;225;917765;-69
2021/01/06 02:25:11;;;;;;;31.10;16.00;;;;;;;;;;619749;225;919938;-68
2021/01/06 02:27:37;;;;;;;36.40;19.27;;;;;;;;;;620516;225;918722;-69
2021/01/06 02:30:03;;;;;;;38.20;19.00;;;;;;;;;;622332;222;919344;-69
2021/01/06 02:32:29;;;;;;;32.23;18.60;;;;;;;;;;621462;222;918664;-69
2021/01/06 02:34:55;;;;;;;33.87;17.10;;;;;;;;;;616867;225;1113160;-69
2021/01/06 02:37:21;;;;;;;29.83;16.40;;;;;;;;;;620289;225;918951;-69
2021/01/06 02:39:47;;;;;;;29.70;15.47;;;;;;;;;;622505;225;918687;-69
2021/01/06 02:42:13;;;;;;;32.53;17.00;;;;;;;;;;617536;222;920091;-69
2021/01/06 02:44:39;;;;;;;32.57;16.10;;;;;;;;;;620337;225;920208;-70
2021/01/06 02:47:05;;;;;;;27.67;15.83;;;;;;;;;;621542;225;917833;-69
2021/01/06 02:49:31;;;;;;;31.00;16.87;;;;;;;;;;619987;225;918840;-69
2021/01/06 02:51:59;;;;;;;34.37;16.00;;;;;;;;;;617946;225;1020296;-69
2021/01/06 02:54:26;;;;;;;41.30;20.73;;;;;;;;;;625819;225;914828;-69
2021/01/06 02:56:51;;;;;;;37.67;18.37;;;;;;;;;;617695;225;918701;-69
2021/01/06 02:59:17;;;;;;;28.60;17.83;;;;;;;;;;616425;225;921142;-69
2021/01/06 03:01:43;;;;;;;39.50;18.23;;;;;;;;;;614885;225;1114633;-69
2021/01/06 03:04:09;;;;;;;30.63;17.40;;;;;;;;;;623679;225;920603;-69
2021/01/06 03:06:35;;;;;;;43.87;20.60;;;;;;;;;;617059;225;919557;-69
2021/01/06 03:09:00;;;;;;;33.63;16.00;;;;;;;;;;617614;225;914137;-68
2021/01/06 03:11:26;;;;;;;30.13;15.03;;;;;;;;;;618920;225;918847;-68
2021/01/06 03:13:52;;;;;;;25.83;15.55;;;;;;;;;;620339;223;919257;-69
2021/01/06 03:16:20;;;;;;;34.53;15.97;;;;;;;;;;617087;225;921165;-70
2021/01/06 03:18:46;;;;;;;40.72;20.58;;;;;;;;;;625021;222;918200;-69
2021/01/06 03:21:11;;;;;;;36.73;16.40;;;;;;;;;;618993;225;918495;-70
2021/01/06 03:23:37;;;;;;;33.85;17.98;;;;;;;;;;618780;224;914775;-70
2021/01/06 03:26:03;;;;;;;37.70;21.90;;;;;;;;;;621683;224;915456;-69
2021/01/06 03:28:29;;;;;;;38.47;18.40;;;;;;;;;;622918;225;913041;-70
2021/01/06 03:30:56;;;;;;;37.47;21.60;;;;;;;;;;620195;224;919056;-70
2021/01/06 03:33:22;;;;;;;43.03;22.50;;;;;;;;;;615037;225;919126;-69
2021/01/06 03:35:48;;;;;;;42.30;21.13;;;;;;;;;;623674;225;1021264;-69
2021/01/06 03:38:24;;;;;;;46.43;27.47;;;;;;;;;;617657;225;920274;-70
2021/01/06 03:40:50;;;;;;;48.05;24.17;;;;;;;;;;619736;225;919101;-69
2021/01/06 03:43:16;;;;;;;43.07;23.43;;;;;;;;;;618205;223;918937;-70
2021/01/06 03:45:42;;;;;;;47.97;23.33;;;;;;;;;;624233;225;920531;-70
2021/01/06 03:48:22;;;;;;;57.57;25.13;;;;;;;;;;617771;225;917895;-70
2021/01/06 03:50:51;;;;;;;43.47;20.63;;;;;;;;;;620647;225;919139;-70
2021/01/06 03:53:16;;;;;;;44.40;18.70;;;;;;;;;;619411;225;920420;-70
2021/01/06 03:55:45;;;;;;;53.87;25.90;;;;;;;;;;622990;222;915914;-70
2021/01/06 03:58:12;;;;;;;56.83;26.03;;;;;;;;;;618085;225;919862;-70
2021/01/06 04:00:38;;;;;;;55.70;24.00;;;;;;;;;;621268;225;920611;-70
2021/01/06 04:03:05;;;;;;;56.73;25.13;;;;;;;;;;619130;223;915149;-71
2021/01/06 04:05:31;;;;;;;41.23;21.63;;;;;;;;;;623319;223;911593;-69
2021/01/06 04:07:57;;;;;;;74.83;29.00;;;;;;;;;;619091;225;920028;-69
2021/01/06 04:10:23;;;;;;;79.07;37.73;;;;;;;;;;615194;225;988619;-69
2021/01/06 04:12:49;;;;;;;58.90;27.20;;;;;;;;;;621497;225;915748;-69
2021/01/06 04:15:15;;;;;;;102.63;33.07;;;;;;;;;;617709;225;915936;-69
2021/01/06 04:17:41;;;;;;;139.03;52.37;;;;;;;;;;618716;225;921199;-69
2021/01/06 04:20:09;;;;;;;116.60;37.90;;;;;;;;;;618366;225;915936;-68
2021/01/06 04:22:36;;;;;;;95.90;34.30;;;;;;;;;;621598;225;915599;-69
2021/01/06 04:25:02;;;;;;;202.27;70.20;;;;;;;;;;618304;223;915809;-69
2021/01/06 04:27:28;;;;;;;138.03;44.57;;;;;;;;;;620817;224;915435;-69
2021/01/06 04:29:54;;;;;;;287.33;94.07;;;;;;;;;;621532;224;1102640;-69
2021/01/06 04:32:19;;;;;;;193.60;57.23;;;;;;;;;;621304;224;914984;-70
2021/01/06 04:34:45;;;;;;;99.53;31.10;;;;;;;;;;617557;225;915686;-70
2021/01/06 04:37:11;;;;;;;109.27;30.27;;;;;;;;;;623413;225;917071;-69
2021/01/06 04:39:37;;;;;;;101.70;43.83;;;;;;;;;;619380;225;914682;-70
2021/01/06 04:42:03;;;;;;;79.13;24.40;;;;;;;;;;621268;225;915010;-70
2021/01/06 04:44:40;;;;;;;101.00;44.13;;;;;;;;;;620600;225;921325;-69
2021/01/06 04:47:24;;;;;;;55.43;24.47;;;;;;;;;;619660;222;915815;-70
2021/01/06 04:50:08;;;;;;;182.83;77.33;;;;;;;;;;623184;222;920311;-69
2021/01/06 04:52:35;;;;;;;75.03;44.50;;;;;;;;;;623875;222;916559;-70
2021/01/06 04:55:02;;;;;;;46.60;25.20;;;;;;;;;;617354;225;920315;-70
2021/01/06 04:57:29;;;;;;;48.87;26.93;;;;;;;;;;616341;222;918386;-70
2021/01/06 05:00:00;;;;;;;54.43;24.10;;;;;;;;;;618132;225;921406;-69
2021/01/06 05:02:41;;;;;;;66.60;25.37;;;;;;;;;;621724;225;914979;-69
2021/01/06 05:05:13;;;;;;;100.90;27.08;;;;;;;;;;622264;225;915384;-70
2021/01/06 05:07:44;;;;;;;148.20;34.60;;;;;;;;;;621344;225;916593;-70
2021/01/06 05:10:11;;;;;;;211.27;48.93;;;;;;;;;;618471;225;912118;-69
2021/01/06 05:12:37;;;;;;;261.77;71.00;;;;;;;;;;614015;225;1537073;-69
2021/01/06 05:15:06;;;;;;;279.10;65.00;;;;;;;;;;618757;225;916297;-69
2021/01/06 05:17:32;;;;;;;223.17;54.27;;;;;;;;;;617649;225;915954;-70
2021/01/06 05:19:58;;;;;;;212.60;55.33;;;;;;;;;;619586;225;915574;-69
2021/01/06 05:22:24;;;;;;;161.30;49.50;;;;;;;;;;616486;225;918174;-69
2021/01/06 05:24:50;;;;;;;170.83;48.60;;;;;;;;;;625080;225;920061;-69
2021/01/06 05:27:15;;;;;;;352.70;106.90;;;;;;;;;;618522;225;919538;-70
2021/01/06 05:29:41;;;;;;;294.40;92.33;;;;;;;;;;621184;225;939383;-69
2021/01/06 05:32:07;;;;;;;295.33;97.10;;;;;;;;;;623212;225;918483;-69
2021/01/06 05:34:33;;;;;;;211.93;71.97;;;;;;;;;;620303;225;919378;-70
2021/01/06 05:36:59;;;;;;;107.17;48.80;;;;;;;;;;619307;223;937176;-70
2021/01/06 05:39:25;;;;;;;101.93;43.50;;;;;;;;;;626158;224;919276;-70
2021/01/06 05:41:53;;;;;;;139.20;65.50;;;;;;;;;;618739;225;918886;-69
2021/01/06 05:44:19;;;;;;;80.00;37.50;;;;;;;;;;617693;222;1019683;-69
2021/01/06 05:46:45;;;;;;;62.87;31.17;;;;;;;;;;620766;225;919074;-68
2021/01/06 05:49:26;;;;;;;59.00;28.13;;;;;;;;;;624674;222;918770;-69
2021/01/06 05:51:55;;;;;;;55.23;27.60;;;;;;;;;;623377;225;929442;-69
2021/01/06 05:54:22;;;;;;;66.90;30.63;;;;;;;;;;618265;220;919995;-68
2021/01/06 05:56:50;;;;;;;44.43;22.33;;;;;;;;;;619963;225;918392;-68
2021/01/06 05:59:20;;;;;;;76.77;24.00;;;;;;;;;;621895;225;919248;-68
2021/01/06 06:01:47;;;;;;;72.23;26.00;;;;;;;;;;623245;223;918493;-69
2021/01/06 06:04:15;;;;;;;74.17;28.77;;;;;;;;;;618515;225;917607;-69
2021/01/06 06:06:46;;;;;;;64.77;28.43;;;;;;;;;;618428;225;921488;-68
2021/01/06 06:09:18;;;;;;;55.77;22.57;;;;;;;;;;619668;225;918501;-69
2021/01/06 06:11:49;;;;;;;57.67;28.53;;;;;;;;;;622814;225;918783;-68
2021/01/06 06:14:32;;;;;;;52.17;21.67;;;;;;;;;;617939;225;918756;-68
2021/01/06 06:16:58;;;;;;;61.63;26.10;;;;;;;;;;620310;225;918461;-68
2021/01/06 06:19:28;;;;;;;65.87;30.65;;;;;;;;;;617828;225;1230158;-67
2021/01/06 06:22:00;;;;;;;70.87;30.80;;;;;;;;;;615818;225;918856;-68
2021/01/06 06:24:26;;;;;;;47.00;20.80;;;;;;;;;;623023;225;918605;-69
2021/01/06 06:27:07;;;;;;;48.65;22.65;;;;;;;;;;616990;225;918894;-68
2021/01/06 06:29:33;;;;;;;71.40;28.13;;;;;;;;;;616574;224;919358;-69
2021/01/06 06:31:59;;;;;;;69.03;28.83;;;;;;;;;;617167;225;918122;-68
2021/01/06 06:34:25;;;;;;;64.27;30.93;;;;;;;;;;624356;225;919359;-68
2021/01/06 06:36:51;;;;;;;62.10;24.23;;;;;;;;;;623717;225;909422;-68
2021/01/06 06:39:22;;;;;;;54.13;25.80;;;;;;;;;;618308;225;918468;-68
2021/01/06 06:41:48;;;;;;;83.70;39.40;;;;;;;;;;619189;225;918463;-68
2021/01/06 06:44:15;;;;;;;62.77;27.27;;;;;;;;;;622911;225;919215;-69
2021/01/06 06:46:58;;;;;;;80.33;40.20;;;;;;;;;;616500;225;957002;-68
2021/01/06 06:49:44;;;;;;;92.70;43.27;;;;;;;;;;620122;225;919071;-68
2021/01/06 06:52:15;;;;;;;94.77;39.37;;;;;;;;;;619077;225;920416;-68
2021/01/06 06:54:58;;;;;;;73.00;32.10;;;;;;;;;;618411;225;920513;-68
2021/01/06 06:57:27;;;;;;;75.53;29.40;;;;;;;;;;619584;223;918960;-68
2021/01/06 07:00:03;;;;;;;50.10;23.77;;;;;;;;;;617580;225;918635;-67
2021/01/06 07:02:29;;;;;;;43.70;22.43;;;;;;;;;;616916;225;1016639;-68
2021/01/06 07:04:58;;;;;;;44.07;20.80;;;;;;;;;;621092;224;915011;-68
2021/01/06 07:07:39;;;;;;;46.60;21.43;;;;;;;;;;615203;225;915476;-69
2021/01/06 07:10:22;;;;;;;48.17;22.60;;;;;;;;;;612677;225;919207;-68
2021/01/06 07:12:48;;;;;;;77.23;30.40;;;;;;;;;;620030;225;842871;-68
2021/01/06 07:15:19;;;;;;;69.20;29.70;;;;;;;;;;618259;225;918490;-68
2021/01/06 07:17:45;;;;;;;79.03;34.70;;;;;;;;;;622253;225;918552;-68
2021/01/06 07:20:12;;;;;;;111.53;43.45;;;;;;;;;;621389;225;920468;-68
2021/01/06 07:22:37;;;;;;;137.57;50.40;;;;;;;;;;619095;225;918721;-69
2021/01/06 07:25:21;;;;;;;89.90;37.63;;;;;;;;;;619484;225;918255;-68
2021/01/06 07:27:49;;;;;;;134.17;51.33;;;;;;;;;;617794;225;918974;-68
2021/01/06 07:30:20;;;;;;;124.30;46.30;;;;;;;;;;621102;225;918702;-68
2021/01/06 07:32:46;;;;;;;102.65;41.55;;;;;;;;;;616404;225;919545;-68
2021/01/06 07:35:12;;;;;;;64.97;28.60;;;;;;;;;;620517;225;918455;-70
2021/01/06 07:37:39;;;;;;;72.43;30.27;;;;;;;;;;618567;225;923492;-67
2021/01/06 07:40:08;;;;;;;63.97;30.77;;;;;;;;;;620947;225;918819;-69
2021/01/06 07:42:34;;;;;;;125.00;45.77;;;;;;;;;;615781;225;925706;-69
2021/01/06 07:45:06;;;;;;;134.73;44.33;;;;;;;;;;618886;225;919810;-69
2021/01/06 07:47:32;;;;;;;94.50;36.80;;;;;;;;;;619557;225;1137621;-70
2021/01/06 07:49:58;;;;;;;86.63;35.97;;;;;;;;;;617075;225;945731;-70
2021/01/06 07:52:29;;;;;;;107.27;37.33;;;;;;;;;;616325;225;918302;-70
2021/01/06 07:54:57;;;;;;;81.87;38.27;;;;;;;;;;615672;225;918528;-71
2021/01/06 07:57:23;;;;;;;113.50;46.27;;;;;;;;;;619076;225;914867;-70
2021/01/06 07:59:49;;;;;;;80.87;39.95;;;;;;;;;;620033;223;916878;-70
2021/01/06 08:02:19;;;;;;;76.50;35.83;;;;;;;;;;620327;225;918997;-70
2021/01/06 08:05:02;;;;;;;56.63;25.17;;;;;;;;;;618608;225;918113;-71
2021/01/06 08:07:28;;;;;;;50.90;22.90;;;;;;;;;;606412;227;919762;-71
2021/01/06 08:09:54;;;;;;;48.37;23.60;;;;;;;;;;625708;224;917366;-70
2021/01/06 08:12:26;;;;;;;47.23;21.97;;;;;;;;;;621189;225;1021104;-71
2021/01/06 08:14:52;;;;;;;54.83;24.97;;;;;;;;;;618030;225;919147;-71
2021/01/06 08:17:19;;;;;;;40.27;21.80;;;;;;;;;;622049;226;932139;-71
2021/01/06 08:19:46;;;;;;;40.83;20.20;;;;;;;;;;619433;225;919041;-72
2021/01/06 08:22:24;;;;;;;45.43;23.70;;;;;;;;;;621709;225;917714;-71
2021/01/06 08:24:51;;;;;;;147.83;67.27;;;;;;;;;;617895;225;917693;-72
2021/01/06 08:27:36;;;;;;;80.93;41.20;;;;;;;;;;616029;225;916221;-71
2021/01/06 08:30:05;;;;;;;69.63;36.00;;;;;;;;;;615779;223;915534;-71
2021/01/06 08:32:31;;;;;;;58.43;35.90;;;;;;;;;;624356;225;918618;-72
2021/01/06 08:34:57;;;;;;;62.57;30.70;;;;;;;;;;619320;225;996052;-72
2021/01/06 08:37:23;;;;;;;52.13;27.07;;;;;;;;;;616438;225;918953;-71
2021/01/06 08:39:51;;;;;;;49.13;24.50;;;;;;;;;;621721;225;919385;-71
2021/01/06 08:42:17;;;;;;;47.90;24.47;;;;;;;;;;618277;221;918595;-72
2021/01/06 08:44:46;;;;;;;51.27;27.10;;;;;;;;;;618657;225;919038;-73
2021/01/06 08:47:12;;;;;;;51.30;26.12;;;;;;;;;;618185;225;918847;-72
2021/01/06 08:49:37;;;;;;;47.77;23.80;;;;;;;;;;624192;225;892623;-72
2021/01/06 08:52:09;;;;;;;43.08;20.77;;;;;;;;;;621278;225;918469;-72
2021/01/06 08:54:35;;;;;;;38.60;18.08;;;;;;;;;;616300;225;940780;-73
2021/01/06 08:57:02;;;;;;;49.40;20.90;;;;;;;;;;612406;225;918032;-72
2021/01/06 08:59:29;;;;;;;58.93;21.57;;;;;;;;;;624946;225;922887;-72
2021/01/06 09:01:55;;;;;;;37.80;20.77;;;;;;;;;;619497;222;918670;-73
2021/01/06 09:04:21;;;;;;;43.78;19.87;;;;;;;;;;620638;225;919333;-72
2021/01/06 09:06:49;;;;;;;58.30;28.50;;;;;;;;;;621962;225;918781;-73
2021/01/06 09:09:15;;;;;;;91.93;37.67;;;;;;;;;;621109;225;917050;-73
2021/01/06 09:11:43;;;;;;;70.23;31.03;;;;;;;;;;620645;224;918783;-72
2021/01/06 09:14:09;;;;;;;51.77;24.50;;;;;;;;;;625670;224;919092;-73
2021/01/06 09:16:35;;;;;;;63.30;34.03;;;;;;;;;;620544;224;1062506;-73
2021/01/06 09:19:02;;;;;;;47.47;24.70;;;;;;;;;;623001;224;919390;-73
2021/01/06 09:21:29;;;;;;;51.60;23.00;;;;;;;;;;617897;224;918901;-73
2021/01/06 09:23:57;;;;;;;54.10;28.93;;;;;;;;;;621001;225;917660;-73
2021/01/06 09:26:22;;;;;;;57.35;27.27;;;;;;;;;;618537;223;847937;-73
2021/01/06 09:28:48;;;;;;;53.90;26.63;;;;;;;;;;614975;225;918508;-73
2021/01/06 09:31:14;;;;;;;60.50;28.73;;;;;;;;;;619404;225;918516;-74
2021/01/06 09:33:40;;;;;;;62.80;33.50;;;;;;;;;;620057;225;918387;-73
2021/01/06 09:36:06;;;;;;;62.70;30.30;;;;;;;;;;617515;225;1021236;-73
2021/01/06 09:38:42;;;;;;;65.40;32.37;;;;;;;;;;617478;225;919236;-74
2021/01/06 09:41:08;;;;;;;48.10;25.63;;;;;;;;;;622086;225;918691;-73
2021/01/06 09:43:35;;;;;;;61.87;28.73;;;;;;;;;;620639;225;925912;-73
2021/01/06 09:46:01;;;;;;;49.87;26.73;;;;;;;;;;619468;225;1007137;-73
2021/01/06 09:48:27;;;;;;;55.03;26.20;;;;;;;;;;618213;225;918964;-73
2021/01/06 09:50:52;;;;;;;61.23;26.40;;;;;;;;;;622525;225;1020049;-73
2021/01/06 09:53:18;;;;;;;55.90;26.33;;;;;;;;;;616036;225;919408;-74
2021/01/06 09:55:44;;;;;;;38.97;21.70;;;;;;;;;;617985;225;919145;-74
2021/01/06 09:58:21;;;;;;;63.42;29.08;;;;;;;;;;619888;225;918708;-74
2021/01/06 10:00:48;;;;;;;65.07;35.40;;;;;;;;;;622319;225;917635;-74
2021/01/06 10:03:13;;;;;;;73.23;33.77;;;;;;;;;;617731;225;918511;-75
2021/01/06 10:05:49;;;;;;;81.75;33.97;;;;;;;;;;616392;225;918203;-73
2021/01/06 10:08:17;;;;;;;64.53;29.10;;;;;;;;;;620534;225;918231;-74
2021/01/06 10:10:43;;;;;;;86.30;41.73;;;;;;;;;;622158;225;918632;-74
2021/01/06 10:13:15;;;;;;;55.20;27.40;;;;;;;;;;616291;225;919531;-74
2021/01/06 10:15:56;;;;;;;64.40;35.73;;;;;;;;;;617640;225;918213;-74
2021/01/06 10:18:34;;;;;;;84.83;36.33;;;;;;;;;;616868;223;917228;-73
2021/01/06 10:21:00;;;;;;;85.33;41.60;;;;;;;;;;617500;225;918476;-74
2021/01/06 10:23:45;;;;;;;80.83;38.23;;;;;;;;;;621786;224;968226;-75
2021/01/06 10:26:17;;;;;;;83.07;37.93;;;;;;;;;;625228;224;919044;-74
2021/01/06 10:28:44;;;;;;;98.93;41.23;;;;;;;;;;619248;225;918546;-74
2021/01/06 10:31:11;;;;;;;80.28;37.70;;;;;;;;;;619864;225;918621;-74
2021/01/06 10:33:37;;;;;;;86.03;39.77;;;;;;;;;;618764;225;918135;-74
2021/01/06 10:36:03;;;;;;;77.00;36.13;;;;;;;;;;622726;225;917938;-74
2021/01/06 10:38:41;;;;;;;86.23;41.97;;;;;;;;;;619134;224;921664;-74
2021/01/06 10:41:10;;;;;;;94.43;42.70;;;;;;;;;;619972;225;925265;-73
2021/01/06 10:43:38;;;;;;;89.57;43.07;;;;;;;;;;618735;225;916054;-72
2021/01/06 10:46:09;;;;;;;95.00;41.00;;;;;;;;;;623729;222;1015308;-73
2021/01/06 10:48:41;;;;;;;94.00;38.43;;;;;;;;;;620188;223;922664;-74
2021/01/06 10:51:07;;;;;;;97.73;40.13;;;;;;;;;;614462;225;1586934;-74
2021/01/06 10:53:33;;;;;;;101.17;44.00;;;;;;;;;;620458;225;918130;-74
2021/01/06 10:56:05;;;;;;;97.60;41.77;;;;;;;;;;622519;225;918807;-73
2021/01/06 10:58:37;;;;;;;149.70;65.27;;;;;;;;;;624729;225;919657;-74
2021/01/06 11:01:04;;;;;;;139.30;60.80;;;;;;;;;;618600;225;919647;-73
2021/01/06 11:03:32;;;;;;;119.47;58.07;;;;;;;;;;618707;225;918134;-73
2021/01/06 11:05:58;;;;;;;124.03;60.93;;;;;;;;;;622275;225;917851;-73
2021/01/06 11:08:39;;;;;;;85.57;44.47;;;;;;;;;;620518;225;918067;-73
2021/01/06 11:11:05;;;;;;;91.80;45.40;;;;;;;;;;619963;223;917297;-73
2021/01/06 11:13:31;;;;;;;98.33;45.90;;;;;;;;;;616878;225;917711;-74
2021/01/06 11:15:56;;;;;;;98.23;53.83;;;;;;;;;;614243;225;1025138;-73
2021/01/06 11:18:37;;;;;;;81.73;43.17;;;;;;;;;;615085;225;917570;-74
2021/01/06 11:21:20;;;;;;;90.40;40.93;;;;;;;;;;614927;225;923742;-74
2021/01/06 11:23:46;;;;;;;83.40;38.67;;;;;;;;;;617692;223;1135459;-74
2021/01/06 11:26:17;;;;;;;107.85;50.85;;;;;;;;;;616515;221;1015834;-74
2021/01/06 11:28:49;;;;;;;100.93;48.03;;;;;;;;;;617627;225;915201;-75
2021/01/06 11:31:21;;;;;;;146.67;79.37;;;;;;;;;;618621;225;914003;-74
2021/01/06 11:33:47;;;;;;;111.50;50.33;;;;;;;;;;621114;225;919256;-74
2021/01/06 11:36:26;;;;;;;97.10;45.40;;;;;;;;;;617135;223;918681;-73
2021/01/06 11:38:53;;;;;;;88.03;44.77;;;;;;;;;;621137;225;918101;-75
2021/01/06 11:41:19;;;;;;;110.43;55.70;;;;;;;;;;619267;225;919660;-74
2021/01/06 11:43:44;;;;;;;107.27;55.70;;;;;;;;;;624242;225;920643;-74
2021/01/06 11:46:16;;;;;;;127.07;57.58;;;;;;;;;;619961;224;916107;-74
2021/01/06 11:48:42;;;;;;;87.70;42.03;;;;;;;;;;620430;225;918443;-74
2021/01/06 11:51:14;;;;;;;95.93;43.23;;;;;;;;;;618283;224;1130299;-74
2021/01/06 11:53:40;;;;;;;90.07;42.60;;;;;;;;;;624431;225;918705;-74
2021/01/06 11:56:11;;;;;;;142.50;51.30;;;;;;;;;;618151;225;918330;-74
2021/01/06 11:58:38;;;;;;;246.33;94.80;;;;;;;;;;618434;225;942612;-75
2021/01/06 12:01:06;;;;;;;103.10;50.07;;;;;;;;;;615489;225;918635;-74
2021/01/06 12:03:32;;;;;;;94.43;42.67;;;;;;;;;;624660;225;918962;-74
2021/01/06 12:06:13;;;;;;;87.00;40.13;;;;;;;;;;616132;225;918828;-74
2021/01/06 12:08:39;;;;;;;83.20;39.77;;;;;;;;;;618320;222;920625;-74
2021/01/06 12:11:09;;;;;;;88.40;40.92;;;;;;;;;;618413;225;918801;-74
2021/01/06 12:13:45;;;;;;;100.00;45.77;;;;;;;;;;622816;223;1021204;-74
2021/01/06 12:16:10;;;;;;;101.53;46.33;;;;;;;;;;624560;225;918756;-74
2021/01/06 12:18:52;;;;;;;113.83;47.53;;;;;;;;;;618103;225;917165;-72
2021/01/06 12:21:33;;;;;;;101.53;44.67;;;;;;;;;;619458;225;919083;-74
2021/01/06 12:23:59;;;;;;;114.10;54.23;;;;;;;;;;616688;222;914541;-74
2021/01/06 12:26:25;;;;;;;105.33;47.87;;;;;;;;;;618634;225;919332;-73
2021/01/06 12:28:51;;;;;;;110.27;47.33;;;;;;;;;;619571;225;918716;-74
2021/01/06 12:31:20;;;;;;;118.07;48.78;;;;;;;;;;621503;225;918237;-73
2021/01/06 12:33:48;;;;;;;105.77;43.20;;;;;;;;;;618592;225;918982;-73
2021/01/06 12:36:14;;;;;;;89.93;40.43;;;;;;;;;;616826;225;918412;-73
2021/01/06 12:38:40;;;;;;;90.10;39.83;;;;;;;;;;621313;225;1130282;-71
2021/01/06 12:41:08;;;;;;;95.77;41.97;;;;;;;;;;620762;225;918378;-74
2021/01/06 12:43:33;;;;;;;104.33;44.30;;;;;;;;;;617430;221;919082;-74
2021/01/06 12:46:00;;;;;;;122.87;52.83;;;;;;;;;;621761;225;918863;-74
2021/01/06 12:48:29;;;;;;;113.77;49.30;;;;;;;;;;617283;223;918250;-72
2021/01/06 12:50:56;;;;;;;103.20;44.27;;;;;;;;;;619560;225;918663;-73
2021/01/06 12:53:22;;;;;;;92.93;44.90;;;;;;;;;;618946;225;918902;-73
2021/01/06 12:55:48;;;;;;;107.30;45.55;;;;;;;;;;613949;225;918144;-73
2021/01/06 12:58:16;;;;;;;103.73;43.60;;;;;;;;;;617832;224;917390;-73
2021/01/06 13:00:43;;;;;;;107.53;45.20;;;;;;;;;;617179;225;914085;-73
2021/01/06 13:03:14;;;;;;;100.03;46.20;;;;;;;;;;624057;225;918658;-73
2021/01/06 13:05:40;;;;;;;139.70;53.70;;;;;;;;;;616811;225;918774;-73
2021/01/06 13:08:06;;;;;;;144.93;66.27;;;;;;;;;;619560;225;968851;-74
2021/01/06 13:10:38;;;;;;;125.87;48.77;;;;;;;;;;615247;225;918728;-72
2021/01/06 13:13:05;;;;;;;133.53;62.07;;;;;;;;;;624104;225;918418;-72
2021/01/06 13:15:31;;;;;;;229.45;126.40;;;;;;;;;;617742;224;921619;-72
2021/01/06 13:18:01;;;;;;;188.20;98.50;;;;;;;;;;621360;225;919036;-72
2021/01/06 13:20:33;;;;;;;139.23;69.47;;;;;;;;;;615351;225;1397658;-72
2021/01/06 13:22:59;;;;;;;171.10;71.13;;;;;;;;;;624297;225;920669;-72
2021/01/06 13:25:40;;;;;;;166.67;82.13;;;;;;;;;;616986;225;918303;-72
2021/01/06 13:28:21;;;;;;;147.98;70.00;;;;;;;;;;621025;225;919777;-72
2021/01/06 13:30:47;;;;;;;132.17;58.63;;;;;;;;;;618212;225;918503;-71
2021/01/06 13:33:30;;;;;;;129.77;62.20;;;;;;;;;;620026;225;918563;-71
2021/01/06 13:36:12;;;;;;;170.07;73.47;;;;;;;;;;617714;225;918962;-71
2021/01/06 13:38:40;;;;;;;123.75;52.67;;;;;;;;;;620989;225;917726;-71
2021/01/06 13:41:12;;;;;;;128.33;55.50;;;;;;;;;;622658;225;918550;-71
2021/01/06 13:43:51;;;;;;;137.57;57.93;;;;;;;;;;625373;225;827279;-71
2021/01/06 13:46:22;;;;;;;134.85;53.85;;;;;;;;;;617061;222;926371;-72
2021/01/06 13:48:51;;;;;;;147.40;56.57;;;;;;;;;;619234;225;918197;-70
2021/01/06 13:51:19;;;;;;;147.90;62.83;;;;;;;;;;618332;222;918687;-71
2021/01/06 13:53:57;;;;;;;160.70;62.17;;;;;;;;;;624425;225;919106;-71
2021/01/06 13:56:24;;;;;;;151.97;64.07;;;;;;;;;;621815;225;920855;-71
2021/01/06 13:58:53;;;;;;;179.53;75.47;;;;;;;;;;622202;224;918806;-71
2021/01/06 14:01:34;;;;;;;191.77;82.43;;;;;;;;;;621099;224;880872;-70
2021/01/06 14:04:02;;;;;;;302.77;129.20;;;;;;;;;;619029;225;932299;-72
2021/01/06 14:06:28;;;;;;;336.43;149.53;;;;;;;;;;616733;225;918147;-69